createdAt,value
2023-04-28T00:00:27.983Z,15.0225
2023-04-28T00:01:31.032Z,14.8771
2023-04-28T00:02:34.172Z,15.3709
2023-04-28T00:03:34.289Z,15.5712
2023-04-28T00:04:34.187Z,15.2434
2023-04-28T00:05:37.270Z,15.5488
2023-04-28T00:06:40.238Z,15.6353
2023-04-28T00:07:43.309Z,15.3442
2023-04-28T00:08:46.295Z,15.1797
2023-04-28T00:09:49.350Z,15.1645
2023-04-28T00:10:52.344Z,15.1562
2023-04-28T00:11:55.407Z,15.1458
2023-04-28T00:12:58.415Z,15.1043
2023-04-28T00:14:01.489Z,14.8379
2023-04-28T00:15:04.485Z,14.6439
2023-04-28T00:16:07.575Z,14.5950
2023-04-28T00:17:10.660Z,14.9073
2023-04-28T00:18:13.625Z,14.8225
2023-04-28T00:19:16.688Z,15.1070
2023-04-28T00:20:19.693Z,14.6107
2023-04-28T00:21:22.720Z,14.9188
2023-04-28T00:22:25.723Z,14.6457
2023-04-28T00:23:28.794Z,14.9265
2023-04-28T00:24:31.804Z,14.8624
2023-04-28T00:25:34.810Z,15.0922
2023-04-28T00:26:37.825Z,14.8137
2023-04-28T00:27:40.818Z,14.6752
2023-04-28T00:28:43.884Z,14.7123
2023-04-28T00:29:46.928Z,14.9988
2023-04-28T00:30:49.943Z,15.0946
2023-04-28T00:31:53.009Z,15.2061
2023-04-28T00:32:56.010Z,15.1389
2023-04-28T00:33:59.029Z,14.9021
2023-04-28T00:35:02.213Z,14.6239
2023-04-28T00:36:02.047Z,15.0918
2023-04-28T00:37:05.002Z,14.7330
2023-04-28T00:38:07.981Z,14.8061
2023-04-28T00:39:11.056Z,14.6225
2023-04-28T00:40:14.117Z,14.5240
2023-04-28T00:41:17.125Z,14.3728
2023-04-28T00:42:20.157Z,14.5222
2023-04-28T00:43:23.179Z,14.8100
2023-04-28T00:44:26.173Z,14.6504
2023-04-28T00:45:29.221Z,14.9674
2023-04-28T00:46:32.233Z,15.2113
2023-04-28T00:47:35.337Z,14.7774
2023-04-28T00:48:38.363Z,14.9407
2023-04-28T00:49:41.404Z,14.8298
2023-04-28T00:50:44.380Z,14.6258
2023-04-28T00:51:47.435Z,14.5507
2023-04-28T00:52:50.495Z,14.5901
2023-04-28T00:53:53.498Z,14.4695
2023-04-28T00:54:56.524Z,14.0730
2023-04-28T00:55:59.518Z,14.3478
2023-04-28T00:57:02.555Z,14.8033
2023-04-28T00:58:05.582Z,14.3729
2023-04-28T00:59:08.625Z,14.4840
2023-04-28T01:00:11.617Z,14.3280
2023-04-28T01:01:14.719Z,14.1013
2023-04-28T01:02:17.924Z,14.5001
2023-04-28T01:03:17.860Z,14.5350
2023-04-28T01:04:21.185Z,14.3521
2023-04-28T01:05:21.445Z,14.5961
2023-04-28T01:06:24.457Z,14.9880
2023-04-28T01:07:27.447Z,14.6331
2023-04-28T01:08:30.498Z,14.6313
2023-04-28T01:09:33.529Z,14.3800
2023-04-28T01:10:36.543Z,14.4044
2023-04-28T01:11:39.599Z,14.1642
2023-04-28T01:12:42.705Z,14.1464
2023-04-28T01:13:45.732Z,14.2552
2023-04-28T01:14:48.723Z,14.1323
2023-04-28T01:15:51.776Z,14.2161
2023-04-28T01:16:54.948Z,13.9229
2023-04-28T01:17:54.826Z,13.8545
2023-04-28T01:18:57.838Z,13.6919
2023-04-28T01:20:00.884Z,13.6614
2023-04-28T01:21:03.907Z,13.5099
2023-04-28T01:22:06.889Z,13.3610
2023-04-28T01:23:09.922Z,13.4598
2023-04-28T01:24:12.906Z,13.2553
2023-04-28T01:25:16.022Z,13.3051
2023-04-28T01:26:18.987Z,13.2517
2023-04-28T01:27:22.014Z,13.2428
2023-04-28T01:28:25.020Z,13.1409
2023-04-28T01:29:28.039Z,13.2944
2023-04-28T01:30:31.030Z,13.0950
2023-04-28T01:31:34.149Z,13.0924
2023-04-28T01:32:37.102Z,13.1283
2023-04-28T01:33:40.151Z,13.1176
2023-04-28T01:34:43.206Z,13.1749
2023-04-28T01:35:46.239Z,13.4919
2023-04-28T01:36:49.316Z,13.3017
2023-04-28T01:37:52.371Z,13.2123
2023-04-28T01:38:55.357Z,13.2626
2023-04-28T01:39:58.440Z,13.3229
2023-04-28T01:41:01.423Z,13.2276
2023-04-28T01:42:04.512Z,13.5867
2023-04-28T01:43:07.506Z,13.2750
2023-04-28T01:44:10.568Z,13.3908
2023-04-28T01:45:13.585Z,13.3803
2023-04-28T01:46:16.700Z,13.1846
2023-04-28T01:47:19.677Z,13.1991
2023-04-28T01:48:22.732Z,13.2479
2023-04-28T01:49:25.709Z,13.5981
2023-04-28T01:50:28.781Z,13.6969
2023-04-28T01:51:31.801Z,13.5315
2023-04-28T01:52:34.815Z,13.7782
2023-04-28T01:53:37.926Z,13.5342
2023-04-28T01:54:40.942Z,13.5797
2023-04-28T01:55:44.004Z,13.6650
2023-04-28T01:56:46.995Z,13.6640
2023-04-28T01:57:50.071Z,13.4292
2023-04-28T01:58:53.254Z,13.7880
2023-04-28T01:59:56.295Z,14.0924
2023-04-28T02:00:59.361Z,14.0515
2023-04-28T02:02:02.466Z,13.9627
2023-04-28T02:03:05.820Z,13.9967
2023-04-28T02:04:05.763Z,13.8611
2023-04-28T02:05:08.831Z,14.0853
2023-04-28T02:06:11.937Z,13.6616
2023-04-28T02:07:15.039Z,14.1572
2023-04-28T02:08:18.080Z,14.0428
2023-04-28T02:09:21.210Z,14.3045
2023-04-28T02:10:24.309Z,14.3575
2023-04-28T02:11:27.442Z,14.4204
2023-04-28T02:12:30.559Z,14.3174
2023-04-28T02:13:33.597Z,14.3167
2023-04-28T02:14:36.653Z,14.2771
2023-04-28T02:15:39.833Z,13.9637
2023-04-28T02:16:42.854Z,14.0848
2023-04-28T02:17:45.959Z,14.1216
2023-04-28T02:18:49.030Z,14.4719
2023-04-28T02:19:52.062Z,14.2871
2023-04-28T02:20:55.181Z,14.3431
2023-04-28T02:21:58.188Z,14.2925
2023-04-28T02:23:01.298Z,14.1710
2023-04-28T02:24:04.356Z,14.2061
2023-04-28T02:25:07.605Z,14.2469
2023-04-28T02:26:07.496Z,13.9417
2023-04-28T02:27:10.529Z,13.6124
2023-04-28T02:28:13.676Z,13.7654
2023-04-28T02:29:16.747Z,13.7988
2023-04-28T02:30:19.810Z,13.6888
2023-04-28T02:31:22.979Z,13.6160
2023-04-28T02:32:26.040Z,13.9247
2023-04-28T02:33:29.108Z,13.9841
2023-04-28T02:34:32.162Z,13.9276
2023-04-28T02:35:35.245Z,13.7692
2023-04-28T02:36:38.284Z,13.9315
2023-04-28T02:37:41.315Z,13.9780
2023-04-28T02:38:44.406Z,14.4099
2023-04-28T02:39:47.489Z,14.1354
2023-04-28T02:40:50.535Z,14.2633
2023-04-28T02:41:53.611Z,14.3280
2023-04-28T02:42:57.640Z,14.5208
2023-04-28T02:43:57.520Z,14.4311
2023-04-28T02:45:00.600Z,13.5179
2023-04-28T02:46:03.644Z,13.6564
2023-04-28T02:47:06.749Z,13.9534
2023-04-28T02:48:09.805Z,14.4546
2023-04-28T02:49:12.881Z,14.4106
2023-04-28T02:50:15.931Z,14.0691
2023-04-28T02:51:19.016Z,14.5095
2023-04-28T02:52:22.084Z,14.4937
2023-04-28T02:53:25.141Z,14.6037
2023-04-28T02:54:28.175Z,14.2136
2023-04-28T02:55:31.387Z,13.8860
2023-04-28T02:56:34.410Z,13.8399
2023-04-28T02:57:37.485Z,14.4203
2023-04-28T02:58:40.507Z,14.3124
2023-04-28T02:59:43.590Z,13.8524
2023-04-28T03:00:46.643Z,14.3391
2023-04-28T03:01:49.689Z,14.5076
2023-04-28T03:02:52.894Z,14.1700
2023-04-28T03:03:53.148Z,13.3911
2023-04-28T03:04:53.131Z,13.2928
2023-04-28T03:05:56.207Z,12.9530
2023-04-28T03:06:59.366Z,12.9113
2023-04-28T03:08:02.396Z,12.7487
2023-04-28T03:09:05.495Z,12.7550
2023-04-28T03:10:08.574Z,12.5575
2023-04-28T03:11:11.598Z,12.6026
2023-04-28T03:12:14.670Z,12.5280
2023-04-28T03:13:17.787Z,12.9423
2023-04-28T03:14:20.839Z,13.0113
2023-04-28T03:15:23.897Z,13.0517
2023-04-28T03:16:27.032Z,13.4106
2023-04-28T03:17:30.159Z,13.6096
2023-04-28T03:18:33.253Z,13.7940
2023-04-28T03:19:36.335Z,13.1510
2023-04-28T03:20:39.498Z,13.3442
2023-04-28T03:21:42.523Z,13.4456
2023-04-28T03:22:45.557Z,13.7721
2023-04-28T03:23:48.582Z,13.8592
2023-04-28T03:24:51.674Z,13.7231
2023-04-28T03:25:54.712Z,13.6978
2023-04-28T03:26:57.751Z,13.6848
2023-04-28T03:28:00.822Z,12.7456
2023-04-28T03:29:03.904Z,12.5557
2023-04-28T03:30:06.977Z,12.6731
2023-04-28T03:31:10.036Z,12.3630
2023-04-28T03:32:13.110Z,12.4364
2023-04-28T03:33:16.151Z,12.3089
2023-04-28T03:34:19.236Z,12.2908
2023-04-28T03:35:22.384Z,12.1332
2023-04-28T03:36:25.422Z,12.3847
2023-04-28T03:37:28.473Z,12.4537
2023-04-28T03:38:31.545Z,12.4932
2023-04-28T03:39:34.577Z,12.2533
2023-04-28T03:40:37.670Z,12.2637
2023-04-28T03:41:40.713Z,12.2291
2023-04-28T03:42:43.823Z,12.2230
2023-04-28T03:43:46.953Z,12.3751
2023-04-28T03:44:50.031Z,12.4455
2023-04-28T03:45:53.124Z,12.6573
2023-04-28T03:46:56.162Z,12.9738
2023-04-28T03:47:59.320Z,12.7814
2023-04-28T03:49:02.373Z,12.8843
2023-04-28T03:50:05.509Z,13.2397
2023-04-28T03:51:08.513Z,12.9494
2023-04-28T03:52:11.612Z,13.1208
2023-04-28T03:53:14.691Z,13.1398
2023-04-28T03:54:17.858Z,13.2184
2023-04-28T03:55:17.876Z,13.3152
2023-04-28T03:56:20.948Z,13.3703
2023-04-28T03:57:24.047Z,12.8975
2023-04-28T03:58:27.110Z,12.8449
2023-04-28T03:59:30.138Z,12.4621
2023-04-28T04:00:33.260Z,12.3175
2023-04-28T04:01:36.288Z,12.5078
2023-04-28T04:02:39.545Z,12.4095
2023-04-28T04:03:39.683Z,12.5232
2023-04-28T04:04:39.792Z,12.3192
2023-04-28T04:05:39.715Z,12.3153
2023-04-28T04:06:42.747Z,12.1017
2023-04-28T04:07:45.754Z,12.4840
2023-04-28T04:08:48.835Z,12.5045
2023-04-28T04:09:51.882Z,12.1360
2023-04-28T04:10:55.023Z,12.4003
2023-04-28T04:11:58.007Z,12.6760
2023-04-28T04:13:01.068Z,12.8518
2023-04-28T04:14:04.128Z,12.7335
2023-04-28T04:15:07.228Z,12.3729
2023-04-28T04:16:10.295Z,12.7688
2023-04-28T04:17:13.318Z,12.6348
2023-04-28T04:18:16.365Z,12.6410
2023-04-28T04:19:19.413Z,12.3247
2023-04-28T04:20:22.468Z,12.5435
2023-04-28T04:21:25.517Z,12.7665
2023-04-28T04:22:28.583Z,12.2764
2023-04-28T04:23:31.893Z,12.8024
2023-04-28T04:24:32.105Z,12.3552
2023-04-28T04:25:35.120Z,12.1741
2023-04-28T04:26:38.188Z,12.0663
2023-04-28T04:27:41.171Z,12.3322
2023-04-28T04:28:44.235Z,12.1421
2023-04-28T04:29:47.254Z,12.1041
2023-04-28T04:30:50.329Z,11.8585
2023-04-28T04:31:53.374Z,11.9174
2023-04-28T04:32:56.465Z,11.9663
2023-04-28T04:33:59.529Z,12.2112
2023-04-28T04:35:02.540Z,12.0472
2023-04-28T04:36:05.644Z,11.9226
2023-04-28T04:37:08.689Z,11.8259
2023-04-28T04:38:11.733Z,11.9349
2023-04-28T04:39:14.823Z,12.0573
2023-04-28T04:40:17.828Z,12.3567
2023-04-28T04:41:20.874Z,12.6028
2023-04-28T04:42:25.853Z,12.5976
2023-04-28T04:43:25.889Z,12.3228
2023-04-28T04:44:28.927Z,12.1562
2023-04-28T04:45:31.975Z,12.5193
2023-04-28T04:46:35.101Z,12.7334
2023-04-28T04:47:38.122Z,12.6156
2023-04-28T04:48:41.136Z,12.3327
2023-04-28T04:49:44.244Z,12.6660
2023-04-28T04:50:47.237Z,12.7168
2023-04-28T04:51:50.322Z,12.1022
2023-04-28T04:52:53.347Z,11.9622
2023-04-28T04:53:56.405Z,11.8506
2023-04-28T04:54:59.479Z,11.8877
2023-04-28T04:56:02.528Z,12.4209
2023-04-28T04:57:05.537Z,12.1481
2023-04-28T04:58:08.651Z,11.8270
2023-04-28T04:59:11.669Z,12.1630
2023-04-28T05:00:14.736Z,12.2594
2023-04-28T05:01:17.788Z,12.5516
2023-04-28T05:02:20.849Z,12.9266
2023-04-28T05:03:23.999Z,12.6918
2023-04-28T05:04:27.185Z,11.9414
2023-04-28T05:05:30.336Z,11.9172
2023-04-28T05:06:30.289Z,11.9248
2023-04-28T05:07:33.287Z,11.7976
2023-04-28T05:08:36.431Z,11.8028
2023-04-28T05:09:39.454Z,11.8596
2023-04-28T05:10:42.553Z,12.2911
2023-04-28T05:11:45.603Z,11.9861
2023-04-28T05:12:49.371Z,12.3813
2023-04-28T05:13:49.226Z,12.4154
2023-04-28T05:14:52.301Z,12.2174
2023-04-28T05:15:55.387Z,12.2906
2023-04-28T05:16:58.494Z,12.6011
2023-04-28T05:18:01.580Z,12.9215
2023-04-28T05:19:04.603Z,12.3251
2023-04-28T05:20:07.661Z,12.2132
2023-04-28T05:21:10.684Z,12.3183
2023-04-28T05:22:13.753Z,12.4544
2023-04-28T05:23:16.875Z,11.8164
2023-04-28T05:24:19.880Z,11.7851
2023-04-28T05:25:22.984Z,11.6529
2023-04-28T05:26:26.005Z,11.6731
2023-04-28T05:27:29.103Z,11.7237
2023-04-28T05:28:32.118Z,11.6173
2023-04-28T05:29:35.209Z,11.5999
2023-04-28T05:30:38.261Z,11.5684
2023-04-28T05:31:41.426Z,11.5903
2023-04-28T05:32:44.456Z,11.5369
2023-04-28T05:33:47.534Z,12.0320
2023-04-28T05:34:50.530Z,12.3460
2023-04-28T05:35:53.621Z,12.5542
2023-04-28T05:36:56.645Z,12.0828
2023-04-28T05:37:59.834Z,11.9477
2023-04-28T05:39:02.820Z,11.9486
2023-04-28T05:40:05.918Z,11.6633
2023-04-28T05:41:09.056Z,11.8197
2023-04-28T05:42:12.082Z,11.8225
2023-04-28T05:43:15.093Z,11.7483
2023-04-28T05:44:18.402Z,11.8377
2023-04-28T05:45:18.315Z,11.5178
2023-04-28T05:46:29.904Z,11.5444
2023-04-28T05:47:23.945Z,11.9300
2023-04-28T05:48:26.951Z,11.8386
2023-04-28T05:49:30.015Z,11.8625
2023-04-28T05:50:33.082Z,11.5146
2023-04-28T05:51:36.166Z,11.6042
2023-04-28T05:52:39.232Z,11.5148
2023-04-28T05:53:42.282Z,11.4984
2023-04-28T05:54:45.311Z,11.6117
2023-04-28T05:55:48.344Z,11.6089
2023-04-28T05:56:52.834Z,11.6106
2023-04-28T05:57:53.585Z,11.5195
2023-04-28T05:58:54.518Z,11.5831
2023-04-28T05:59:58.391Z,11.5184
2023-04-28T06:00:58.233Z,11.5096
2023-04-28T06:02:01.460Z,11.4407
2023-04-28T06:03:01.501Z,11.3938
2023-04-28T06:04:02.700Z,11.4375
2023-04-28T06:05:03.983Z,11.5358
2023-04-28T06:06:07.816Z,11.6831
2023-04-28T06:07:07.429Z,11.5593
2023-04-28T06:08:07.394Z,11.3529
2023-04-28T06:09:09.384Z,11.4786
2023-04-28T06:10:12.457Z,11.5906
2023-04-28T06:11:15.524Z,11.6091
2023-04-28T06:12:15.624Z,11.3758
2023-04-28T06:13:18.854Z,11.5674
2023-04-28T06:14:19.054Z,11.4315
2023-04-28T06:15:19.121Z,11.5696
2023-04-28T06:16:22.357Z,11.6590
2023-04-28T06:17:25.518Z,11.5536
2023-04-28T06:18:25.910Z,11.8188
2023-04-28T06:19:25.916Z,12.0410
2023-04-28T06:20:25.798Z,11.6660
2023-04-28T06:21:28.838Z,11.8049
2023-04-28T06:22:31.953Z,11.5898
2023-04-28T06:23:35.041Z,11.5916
2023-04-28T06:24:38.089Z,11.8507
2023-04-28T06:25:41.162Z,11.8219
2023-04-28T06:26:44.195Z,12.3488
2023-04-28T06:27:47.275Z,12.6114
2023-04-28T06:28:50.428Z,11.8791
2023-04-28T06:29:53.462Z,12.0490
2023-04-28T06:30:56.585Z,12.4617
2023-04-28T06:31:59.676Z,12.0048
2023-04-28T06:33:02.754Z,11.9647
2023-04-28T06:34:05.788Z,12.1515
2023-04-28T06:35:08.817Z,11.7257
2023-04-28T06:36:11.838Z,11.5493
2023-04-28T06:37:14.909Z,11.5340
2023-04-28T06:38:18.003Z,11.5363
2023-04-28T06:39:21.034Z,11.6713
2023-04-28T06:40:24.115Z,11.8944
2023-04-28T06:41:27.189Z,11.7952
2023-04-28T06:42:30.259Z,11.7830
2023-04-28T06:43:33.321Z,11.6751
2023-04-28T06:44:36.858Z,12.1226
2023-04-28T06:45:37.697Z,12.2729
2023-04-28T06:46:40.773Z,11.9240
2023-04-28T06:47:43.879Z,12.0081
2023-04-28T06:48:44.941Z,12.5137
2023-04-28T06:49:48.009Z,12.4250
2023-04-28T06:50:51.062Z,12.6749
2023-04-28T06:51:54.229Z,12.8702
2023-04-28T06:52:54.261Z,12.5048
2023-04-28T06:53:57.438Z,11.9035
2023-04-28T06:55:00.478Z,12.0464
2023-04-28T06:56:03.587Z,12.0670
2023-04-28T06:57:06.713Z,11.9039
2023-04-28T06:58:06.610Z,11.8937
2023-04-28T06:59:09.661Z,11.9909
2023-04-28T07:00:12.729Z,12.4167
2023-04-28T07:01:15.875Z,12.3858
2023-04-28T07:02:19.031Z,12.3169
2023-04-28T07:03:22.161Z,12.3570
2023-04-28T07:04:25.356Z,12.3899
2023-04-28T07:05:26.270Z,12.4888
2023-04-28T07:06:29.292Z,12.5086
2023-04-28T07:07:32.353Z,12.5048
2023-04-28T07:08:35.428Z,12.2791
2023-04-28T07:09:38.464Z,12.4395
2023-04-28T07:10:41.506Z,12.2482
2023-04-28T07:11:41.801Z,12.7201
2023-04-28T07:12:44.839Z,12.2637
2023-04-28T07:13:47.912Z,12.1372
2023-04-28T07:14:50.948Z,12.1539
2023-04-28T07:15:54.032Z,12.3387
2023-04-28T07:16:57.055Z,12.1556
2023-04-28T07:18:00.249Z,12.5225
2023-04-28T07:19:03.289Z,12.2048
2023-04-28T07:20:06.327Z,12.4696
2023-04-28T07:21:09.402Z,12.6143
2023-04-28T07:22:12.668Z,12.9563
2023-04-28T07:23:12.467Z,12.9125
2023-04-28T07:24:15.788Z,13.0481
2023-04-28T07:25:15.811Z,12.6499
2023-04-28T07:26:18.894Z,12.7407
2023-04-28T07:27:22.005Z,12.9210
2023-04-28T07:28:25.078Z,12.3410
2023-04-28T07:29:28.106Z,12.4681
2023-04-28T07:30:31.239Z,12.6539
2023-04-28T07:31:34.301Z,12.7570
2023-04-28T07:32:37.397Z,12.7064
2023-04-28T07:33:40.459Z,12.8544
2023-04-28T07:34:43.538Z,12.8908
2023-04-28T07:35:46.586Z,12.7296
2023-04-28T07:36:49.655Z,12.8274
2023-04-28T07:37:52.728Z,12.9186
2023-04-28T07:38:55.809Z,12.8912
2023-04-28T07:39:58.856Z,13.1003
2023-04-28T07:41:01.918Z,12.9110
2023-04-28T07:42:04.968Z,12.5727
2023-04-28T07:43:08.054Z,12.2781
2023-04-28T07:44:11.085Z,12.2881
2023-04-28T07:45:14.130Z,12.3306
2023-04-28T07:46:17.506Z,12.1103
2023-04-28T07:47:17.522Z,11.9970
2023-04-28T07:48:20.519Z,12.0949
2023-04-28T07:49:23.540Z,12.0916
2023-04-28T07:50:26.598Z,11.9821
2023-04-28T07:51:29.665Z,11.9131
2023-04-28T07:52:32.853Z,11.9479
2023-04-28T07:53:35.836Z,12.0202
2023-04-28T07:54:38.927Z,11.8351
2023-04-28T07:55:42.062Z,11.8031
2023-04-28T07:56:45.065Z,11.6593
2023-04-28T07:57:48.149Z,11.5803
2023-04-28T07:58:51.245Z,11.7711
2023-04-28T07:59:54.300Z,11.6339
2023-04-28T08:00:57.363Z,11.7004
2023-04-28T08:02:00.510Z,11.5392
2023-04-28T08:03:00.692Z,11.6122
2023-04-28T08:04:01.181Z,11.8316
2023-04-28T08:05:01.549Z,11.8517
2023-04-28T08:06:01.560Z,11.8185
2023-04-28T08:07:04.667Z,11.7635
2023-04-28T08:08:07.796Z,11.7629
2023-04-28T08:09:10.932Z,11.8655
2023-04-28T08:10:14.029Z,11.9286
2023-04-28T08:11:17.145Z,12.1301
2023-04-28T08:12:20.191Z,12.0148
2023-04-28T08:13:23.460Z,12.0275
2023-04-28T08:14:23.316Z,11.9518
2023-04-28T08:15:26.333Z,11.9390
2023-04-28T08:16:29.374Z,11.8592
2023-04-28T08:17:32.519Z,11.8249
2023-04-28T08:18:35.576Z,11.8319
2023-04-28T08:19:38.595Z,11.8118
2023-04-28T08:20:41.640Z,11.7933
2023-04-28T08:21:44.650Z,11.8167
2023-04-28T08:22:47.726Z,11.7510
2023-04-28T08:23:50.760Z,11.8146
2023-04-28T08:24:53.849Z,11.9289
2023-04-28T08:25:56.915Z,12.0465
2023-04-28T08:26:59.930Z,11.9100
2023-04-28T08:28:02.960Z,11.9954
2023-04-28T08:29:06.031Z,12.2063
2023-04-28T08:30:09.032Z,11.9241
2023-04-28T08:31:12.136Z,11.9880
2023-04-28T08:32:15.198Z,11.9181
2023-04-28T08:33:18.352Z,11.9311
2023-04-28T08:34:21.663Z,12.0152
2023-04-28T08:35:21.694Z,11.9813
2023-04-28T08:36:24.790Z,11.9691
2023-04-28T08:37:27.822Z,11.9401
2023-04-28T08:38:30.872Z,11.9829
2023-04-28T08:39:33.925Z,11.9542
2023-04-28T08:40:37.027Z,11.9439
2023-04-28T08:41:40.145Z,11.9318
2023-04-28T08:42:43.198Z,11.9365
2023-04-28T08:43:46.237Z,11.9549
2023-04-28T08:44:49.295Z,11.9532
2023-04-28T08:45:52.350Z,11.8781
2023-04-28T08:46:55.415Z,11.9574
2023-04-28T08:47:58.471Z,11.9997
2023-04-28T08:48:59.390Z,11.9376
2023-04-28T08:50:02.420Z,11.9356
2023-04-28T08:51:05.473Z,11.9581
2023-04-28T08:52:08.566Z,11.9418
2023-04-28T08:53:11.557Z,11.9871
2023-04-28T08:54:25.596Z,11.9594
2023-04-28T08:55:17.156Z,12.0084
2023-04-28T08:56:20.175Z,12.0038
2023-04-28T08:57:23.234Z,11.9588
2023-04-28T08:58:26.292Z,12.0100
2023-04-28T08:59:29.401Z,11.9278
2023-04-28T09:00:32.387Z,12.0024
2023-04-28T09:01:35.430Z,12.0514
2023-04-28T09:02:38.623Z,12.0686
2023-04-28T09:03:38.721Z,12.0891
2023-04-28T09:04:38.872Z,12.0670
2023-04-28T09:05:39.250Z,12.1219
2023-04-28T09:06:39.164Z,12.0348
2023-04-28T09:07:42.215Z,11.9425
2023-04-28T09:08:45.302Z,11.9335
2023-04-28T09:09:48.511Z,11.8729
2023-04-28T09:10:51.557Z,11.9628
2023-04-28T09:11:54.592Z,12.0205
2023-04-28T09:12:57.731Z,12.0076
2023-04-28T09:14:00.787Z,11.9258
2023-04-28T09:15:03.866Z,12.0475
2023-04-28T09:16:06.970Z,12.0036
2023-04-28T09:17:09.976Z,11.9450
2023-04-28T09:18:13.076Z,12.0614
2023-04-28T09:19:16.064Z,12.0053
2023-04-28T09:20:19.277Z,12.0703
2023-04-28T09:21:19.944Z,12.1699
2023-04-28T09:22:26.749Z,12.0783
2023-04-28T09:23:22.362Z,12.0178
2023-04-28T09:24:25.410Z,12.1499
2023-04-28T09:25:28.468Z,12.1996
2023-04-28T09:26:31.512Z,12.2153
2023-04-28T09:27:34.575Z,12.1379
2023-04-28T09:28:37.653Z,12.2570
2023-04-28T09:29:40.671Z,12.2875
2023-04-28T09:30:43.740Z,12.2555
2023-04-28T09:31:46.832Z,12.3381
2023-04-28T09:32:49.864Z,12.3485
2023-04-28T09:33:52.891Z,12.3117
2023-04-28T09:34:55.966Z,12.2575
2023-04-28T09:35:59.049Z,12.3202
2023-04-28T09:37:02.125Z,12.3003
2023-04-28T09:38:05.238Z,12.3745
2023-04-28T09:39:08.354Z,12.3005
2023-04-28T09:40:11.362Z,12.3502
2023-04-28T09:41:14.420Z,12.3100
2023-04-28T09:42:17.462Z,12.3588
2023-04-28T09:43:22.154Z,12.3396
2023-04-28T09:44:22.037Z,12.2319
2023-04-28T09:45:25.093Z,12.1931
2023-04-28T09:46:28.312Z,12.1987
2023-04-28T09:47:28.194Z,12.1958
2023-04-28T09:48:31.247Z,12.1102
2023-04-28T09:49:34.260Z,12.2704
2023-04-28T09:50:37.281Z,12.2125
2023-04-28T09:51:40.336Z,12.2814
2023-04-28T09:52:43.368Z,12.3774
2023-04-28T09:53:46.440Z,12.4413
2023-04-28T09:54:49.501Z,12.3511
2023-04-28T09:55:52.566Z,12.3792
2023-04-28T09:56:55.659Z,12.4154
2023-04-28T09:57:58.661Z,12.2673
2023-04-28T09:59:01.663Z,12.4361
2023-04-28T10:00:04.752Z,12.3925
2023-04-28T10:01:07.857Z,12.3293
2023-04-28T10:02:32.063Z,12.5048
2023-04-28T10:03:13.493Z,12.4576
2023-04-28T10:04:17.061Z,12.3203
2023-04-28T10:05:17.298Z,12.3876
2023-04-28T10:06:17.519Z,12.3704
2023-04-28T10:07:17.317Z,12.2412
2023-04-28T10:08:20.386Z,12.1746
2023-04-28T10:09:24.860Z,12.1998
2023-04-28T10:10:24.693Z,12.1703
2023-04-28T10:11:27.744Z,12.1240
2023-04-28T10:12:30.833Z,12.1667
2023-04-28T10:13:33.845Z,12.1847
2023-04-28T10:14:36.908Z,12.0831
2023-04-28T10:15:39.993Z,12.0718
2023-04-28T10:16:43.087Z,12.1349
2023-04-28T10:17:46.126Z,12.2511
2023-04-28T10:18:49.126Z,12.1605
2023-04-28T10:19:52.184Z,12.1747
2023-04-28T10:20:55.284Z,12.1682
2023-04-28T10:21:58.291Z,12.1972
2023-04-28T10:23:01.360Z,12.1553
2023-04-28T10:24:04.383Z,12.1469
2023-04-28T10:26:13.887Z,12.1411
2023-04-28T10:26:13.887Z,12.1511
2023-04-28T10:27:16.943Z,12.1637
2023-04-28T10:28:19.991Z,12.1514
2023-04-28T10:29:23.005Z,12.2153
2023-04-28T10:30:28.707Z,12.2368
2023-04-28T10:31:29.221Z,12.1228
2023-04-28T10:32:32.312Z,12.1216
2023-04-28T10:33:35.303Z,12.1342
2023-04-28T10:34:38.385Z,12.1887
2023-04-28T10:35:41.438Z,12.2489
2023-04-28T10:36:44.476Z,12.3255
2023-04-28T10:37:47.536Z,12.3418
2023-04-28T10:38:50.582Z,12.3081
2023-04-28T10:39:53.728Z,12.3708
2023-04-28T10:40:56.727Z,12.4062
2023-04-28T10:41:59.761Z,12.4465
2023-04-28T10:43:02.889Z,12.4348
2023-04-28T10:44:05.985Z,12.5478
2023-04-28T10:45:09.064Z,12.5720
2023-04-28T10:46:12.165Z,12.6776
2023-04-28T10:47:15.275Z,12.7200
2023-04-28T10:48:18.357Z,12.7449
2023-04-28T10:49:21.418Z,12.7972
2023-04-28T10:50:36.052Z,12.8455
2023-04-28T10:51:27.036Z,12.8378
2023-04-28T10:52:30.096Z,12.8417
2023-04-28T10:53:33.156Z,12.7782
2023-04-28T10:54:36.179Z,12.9156
2023-04-28T10:55:39.258Z,12.7915
2023-04-28T10:56:42.304Z,12.7685
2023-04-28T10:57:45.349Z,12.7605
2023-04-28T10:58:48.397Z,12.7603
2023-04-28T10:59:51.621Z,12.9037
2023-04-28T11:00:51.443Z,13.0750
2023-04-28T11:01:54.569Z,13.1098
2023-04-28T11:02:57.717Z,13.0687
2023-04-28T11:04:01.312Z,12.9385
2023-04-28T11:05:01.492Z,13.0158
2023-04-28T11:06:01.409Z,13.1112
2023-04-28T11:07:04.411Z,13.1650
2023-04-28T11:08:07.446Z,13.1544
2023-04-28T11:09:10.490Z,13.1360
2023-04-28T11:10:13.532Z,13.2468
2023-04-28T11:11:16.549Z,13.2739
2023-04-28T11:12:16.764Z,13.2115
2023-04-28T11:13:19.834Z,13.1776
2023-04-28T11:14:22.859Z,13.1606
2023-04-28T11:16:27.967Z,13.1333
2023-04-28T11:16:27.967Z,13.1308
2023-04-28T11:17:31.012Z,13.1624
2023-04-28T11:18:33.994Z,13.0757
2023-04-28T11:19:37.146Z,13.1072
2023-04-28T11:20:40.208Z,13.1485
2023-04-28T11:21:43.280Z,13.1956
2023-04-28T11:22:46.298Z,13.0797
2023-04-28T11:23:49.376Z,13.2002
2023-04-28T11:24:54.007Z,13.1665
2023-04-28T11:25:53.837Z,13.1349
2023-04-28T11:26:56.878Z,13.1488
2023-04-28T11:27:59.918Z,13.0655
2023-04-28T11:29:02.997Z,13.1849
2023-04-28T11:30:06.024Z,13.1443
2023-04-28T11:31:09.041Z,13.1810
2023-04-28T11:32:12.156Z,13.2120
2023-04-28T11:33:15.222Z,13.2550
2023-04-28T11:34:18.272Z,13.1437
2023-04-28T11:35:21.312Z,13.2201
2023-04-28T11:36:24.337Z,13.2622
2023-04-28T11:37:27.425Z,13.2719
2023-04-28T11:38:30.433Z,13.2456
2023-04-28T11:39:33.535Z,13.3218
2023-04-28T11:40:36.544Z,13.3468
2023-04-28T11:41:39.552Z,13.4643
2023-04-28T11:42:42.590Z,13.3993
2023-04-28T11:43:47.739Z,13.3770
2023-04-28T11:44:47.684Z,13.4264
2023-04-28T11:45:50.727Z,13.4612
2023-04-28T11:46:53.765Z,13.5115
2023-04-28T11:47:56.786Z,13.5527
2023-04-28T11:48:59.889Z,13.6392
2023-04-28T11:50:02.958Z,13.5940
2023-04-28T11:51:05.974Z,13.6230
2023-04-28T11:52:09.108Z,13.7515
2023-04-28T11:53:12.104Z,13.8040
2023-04-28T11:54:15.196Z,13.8987
2023-04-28T11:55:18.225Z,13.9817
2023-04-28T11:56:21.267Z,13.9221
2023-04-28T11:57:24.278Z,13.8134
2023-04-28T11:58:27.313Z,13.8916
2023-04-28T11:59:32.444Z,13.8397
2023-04-28T12:00:32.253Z,13.8244
2023-04-28T12:01:35.328Z,13.8446
2023-04-28T12:02:38.619Z,13.9298
2023-04-28T12:03:38.664Z,13.9540
2023-04-28T12:04:38.675Z,13.9303
2023-04-28T12:05:41.745Z,13.8846
2023-04-28T12:06:44.739Z,13.8713
2023-04-28T12:07:47.846Z,13.9422
2023-04-28T12:08:50.873Z,13.9330
2023-04-28T12:09:53.941Z,13.9283
2023-04-28T12:10:57.013Z,13.9602
2023-04-28T12:12:00.036Z,13.8525
2023-04-28T12:13:03.072Z,13.9194
2023-04-28T12:14:06.195Z,13.8900
2023-04-28T12:15:09.225Z,13.9443
2023-04-28T12:16:12.292Z,13.8532
2023-04-28T12:17:15.289Z,13.9510
2023-04-28T12:18:18.350Z,13.9516
2023-04-28T12:19:21.405Z,13.8630
2023-04-28T12:20:24.508Z,13.9270
2023-04-28T12:21:28.486Z,13.9384
2023-04-28T12:22:28.314Z,13.9731
2023-04-28T12:23:31.372Z,13.9671
2023-04-28T12:24:34.440Z,14.0285
2023-04-28T12:25:37.489Z,14.1319
2023-04-28T12:26:40.533Z,14.1606
2023-04-28T12:27:43.598Z,14.1200
2023-04-28T12:28:46.649Z,14.0543
2023-04-28T12:29:49.738Z,14.0755
2023-04-28T12:30:52.748Z,14.1582
2023-04-28T12:31:55.852Z,14.0949
2023-04-28T12:32:58.934Z,14.1517
2023-04-28T12:34:01.971Z,14.1863
2023-04-28T12:35:05.049Z,14.1131
2023-04-28T12:36:08.085Z,14.1295
2023-04-28T12:37:11.197Z,14.1892
2023-04-28T12:38:14.269Z,14.1863
2023-04-28T12:39:17.303Z,14.2159